sensor_id;sensor_type;location;lat;lon;timestamp;P1;durP1;ratioP1;P2;durP2;ratioP2
53666;SDS011;39568;51.026;5.468;2023-02-22T00:01:01;135.05;;;20.35;;
53666;SDS011;39568;51.026;5.468;2023-02-22T00:03:43;224.30;;;20.48;;
53666;SDS011;39568;51.026;5.468;2023-02-22T00:06:14;201.60;;;22.48;;
53666;SDS011;39568;51.026;5.468;2023-02-22T00:08:42;186.88;;;22.15;;
53666;SDS011;39568;51.026;5.468;2023-02-22T00:11:09;171.68;;;22.02;;
53666;SDS011;39568;51.026;5.468;2023-02-22T00:13:37;186.45;;;22.50;;
53666;SDS011;39568;51.026;5.468;2023-02-22T00:16:04;274.85;;;21.75;;
53666;SDS011;39568;51.026;5.468;2023-02-22T00:18:32;204.75;;;20.38;;
53666;SDS011;39568;51.026;5.468;2023-02-22T00:20:59;181.77;;;21.65;;
53666;SDS011;39568;51.026;5.468;2023-02-22T00:23:27;207.50;;;21.48;;
53666;SDS011;39568;51.026;5.468;2023-02-22T00:25:56;177.23;;;21.02;;
53666;SDS011;39568;51.026;5.468;2023-02-22T00:28:24;186.93;;;20.50;;
53666;SDS011;39568;51.026;5.468;2023-02-22T00:30:52;227.80;;;21.88;;
53666;SDS011;39568;51.026;5.468;2023-02-22T00:33:19;197.23;;;20.70;;
53666;SDS011;39568;51.026;5.468;2023-02-22T00:35:46;189.55;;;19.98;;
53666;SDS011;39568;51.026;5.468;2023-02-22T00:38:13;187.50;;;20.85;;
53666;SDS011;39568;51.026;5.468;2023-02-22T00:40:42;234.80;;;21.50;;
53666;SDS011;39568;51.026;5.468;2023-02-22T00:43:09;215.30;;;21.67;;
53666;SDS011;39568;51.026;5.468;2023-02-22T00:45:36;232.95;;;20.85;;
53666;SDS011;39568;51.026;5.468;2023-02-22T00:48:04;245.23;;;21.60;;
53666;SDS011;39568;51.026;5.468;2023-02-22T00:50:32;131.10;;;19.92;;
53666;SDS011;39568;51.026;5.468;2023-02-22T00:53:00;153.60;;;21.60;;
53666;SDS011;39568;51.026;5.468;2023-02-22T00:55:29;151.27;;;17.63;;
53666;SDS011;39568;51.026;5.468;2023-02-22T00:57:57;220.27;;;20.63;;
53666;SDS011;39568;51.026;5.468;2023-02-22T01:00:26;242.85;;;21.63;;
53666;SDS011;39568;51.026;5.468;2023-02-22T01:02:55;253.73;;;24.85;;
53666;SDS011;39568;51.026;5.468;2023-02-22T01:05:23;258.45;;;22.70;;
53666;SDS011;39568;51.026;5.468;2023-02-22T01:07:52;198.02;;;22.67;;
53666;SDS011;39568;51.026;5.468;2023-02-22T01:10:20;467.52;;;31.83;;
53666;SDS011;39568;51.026;5.468;2023-02-22T01:12:49;189.82;;;22.20;;
53666;SDS011;39568;51.026;5.468;2023-02-22T01:15:17;256.58;;;23.77;;
53666;SDS011;39568;51.026;5.468;2023-02-22T01:17:47;173.88;;;20.73;;
53666;SDS011;39568;51.026;5.468;2023-02-22T01:20:15;177.15;;;22.85;;
53666;SDS011;39568;51.026;5.468;2023-02-22T01:22:45;186.45;;;21.30;;
53666;SDS011;39568;51.026;5.468;2023-02-22T01:25:16;189.02;;;21.63;;
53666;SDS011;39568;51.026;5.468;2023-02-22T01:27:44;170.40;;;21.50;;
53666;SDS011;39568;51.026;5.468;2023-02-22T01:30:11;216.15;;;20.98;;
53666;SDS011;39568;51.026;5.468;2023-02-22T01:32:40;353.30;;;27.88;;
53666;SDS011;39568;51.026;5.468;2023-02-22T01:35:08;228.07;;;21.13;;
53666;SDS011;39568;51.026;5.468;2023-02-22T01:37:38;214.02;;;24.25;;
53666;SDS011;39568;51.026;5.468;2023-02-22T01:40:14;161.20;;;20.55;;
53666;SDS011;39568;51.026;5.468;2023-02-22T01:42:42;156.95;;;21.58;;
53666;SDS011;39568;51.026;5.468;2023-02-22T01:45:29;180.95;;;20.20;;
53666;SDS011;39568;51.026;5.468;2023-02-22T01:48:08;230.00;;;22.33;;
53666;SDS011;39568;51.026;5.468;2023-02-22T01:50:38;133.43;;;19.55;;
53666;SDS011;39568;51.026;5.468;2023-02-22T01:53:07;178.90;;;21.52;;
53666;SDS011;39568;51.026;5.468;2023-02-22T01:55:38;210.55;;;20.85;;
53666;SDS011;39568;51.026;5.468;2023-02-22T01:58:05;176.88;;;19.95;;
53666;SDS011;39568;51.026;5.468;2023-02-22T02:00:33;238.98;;;20.50;;
53666;SDS011;39568;51.026;5.468;2023-02-22T02:03:01;252.82;;;24.27;;
53666;SDS011;39568;51.026;5.468;2023-02-22T02:05:30;200.18;;;20.60;;
53666;SDS011;39568;51.026;5.468;2023-02-22T02:07:58;236.80;;;22.33;;
53666;SDS011;39568;51.026;5.468;2023-02-22T02:10:33;250.05;;;21.85;;
53666;SDS011;39568;51.026;5.468;2023-02-22T02:13:04;238.50;;;21.92;;
53666;SDS011;39568;51.026;5.468;2023-02-22T02:15:31;211.80;;;23.67;;
53666;SDS011;39568;51.026;5.468;2023-02-22T02:17:59;130.35;;;21.73;;
53666;SDS011;39568;51.026;5.468;2023-02-22T02:20:29;150.93;;;19.27;;
53666;SDS011;39568;51.026;5.468;2023-02-22T02:23:03;149.48;;;19.00;;
53666;SDS011;39568;51.026;5.468;2023-02-22T02:34:38;250.15;;;29.23;;
53666;SDS011;39568;51.026;5.468;2023-02-22T02:37:16;263.48;;;25.33;;
53666;SDS011;39568;51.026;5.468;2023-02-22T02:39:49;256.05;;;25.25;;
53666;SDS011;39568;51.026;5.468;2023-02-22T02:42:22;194.68;;;22.17;;
53666;SDS011;39568;51.026;5.468;2023-02-22T02:44:57;145.45;;;22.63;;
53666;SDS011;39568;51.026;5.468;2023-02-22T02:47:29;266.45;;;26.63;;
53666;SDS011;39568;51.026;5.468;2023-02-22T02:50:02;351.27;;;29.60;;
53666;SDS011;39568;51.026;5.468;2023-02-22T02:52:33;275.60;;;28.50;;
53666;SDS011;39568;51.026;5.468;2023-02-22T02:55:00;246.77;;;24.10;;
53666;SDS011;39568;51.026;5.468;2023-02-22T02:57:29;245.68;;;26.10;;
53666;SDS011;39568;51.026;5.468;2023-02-22T02:59:56;180.80;;;24.52;;
53666;SDS011;39568;51.026;5.468;2023-02-22T03:02:26;155.43;;;23.38;;
53666;SDS011;39568;51.026;5.468;2023-02-22T03:05:16;209.52;;;23.15;;
53666;SDS011;39568;51.026;5.468;2023-02-22T03:07:57;281.92;;;25.83;;
53666;SDS011;39568;51.026;5.468;2023-02-22T03:10:37;361.10;;;30.00;;
53666;SDS011;39568;51.026;5.468;2023-02-22T03:13:15;230.85;;;24.60;;
53666;SDS011;39568;51.026;5.468;2023-02-22T03:15:49;277.83;;;26.67;;
53666;SDS011;39568;51.026;5.468;2023-02-22T03:18:23;165.23;;;23.60;;
53666;SDS011;39568;51.026;5.468;2023-02-22T03:20:54;171.00;;;23.45;;
53666;SDS011;39568;51.026;5.468;2023-02-22T03:23:27;149.38;;;21.48;;
53666;SDS011;39568;51.026;5.468;2023-02-22T03:25:58;217.98;;;24.35;;
53666;SDS011;39568;51.026;5.468;2023-02-22T03:28:28;279.00;;;24.55;;
53666;SDS011;39568;51.026;5.468;2023-02-22T03:30:57;175.90;;;23.08;;
53666;SDS011;39568;51.026;5.468;2023-02-22T03:33:29;215.23;;;23.30;;
53666;SDS011;39568;51.026;5.468;2023-02-22T03:36:02;220.35;;;22.42;;
53666;SDS011;39568;51.026;5.468;2023-02-22T03:38:32;202.77;;;22.65;;
53666;SDS011;39568;51.026;5.468;2023-02-22T03:41:03;182.90;;;27.85;;
53666;SDS011;39568;51.026;5.468;2023-02-22T03:43:35;226.57;;;22.17;;
53666;SDS011;39568;51.026;5.468;2023-02-22T03:46:05;199.52;;;19.88;;
53666;SDS011;39568;51.026;5.468;2023-02-22T03:48:37;230.77;;;25.00;;
53666;SDS011;39568;51.026;5.468;2023-02-22T03:51:08;242.20;;;23.15;;
53666;SDS011;39568;51.026;5.468;2023-02-22T03:53:35;277.40;;;23.92;;
53666;SDS011;39568;51.026;5.468;2023-02-22T03:56:03;185.38;;;23.67;;
53666;SDS011;39568;51.026;5.468;2023-02-22T04:01:03;187.15;;;23.50;;
53666;SDS011;39568;51.026;5.468;2023-02-22T04:03:30;198.23;;;24.20;;
53666;SDS011;39568;51.026;5.468;2023-02-22T04:05:58;197.98;;;23.33;;
53666;SDS011;39568;51.026;5.468;2023-02-22T04:08:25;206.90;;;25.52;;
53666;SDS011;39568;51.026;5.468;2023-02-22T04:10:52;132.10;;;20.08;;
53666;SDS011;39568;51.026;5.468;2023-02-22T04:13:18;117.25;;;19.67;;
53666;SDS011;39568;51.026;5.468;2023-02-22T04:15:45;116.90;;;21.85;;
53666;SDS011;39568;51.026;5.468;2023-02-22T04:18:12;206.38;;;23.02;;
53666;SDS011;39568;51.026;5.468;2023-02-22T04:20:39;126.03;;;24.00;;
53666;SDS011;39568;51.026;5.468;2023-02-22T04:23:07;134.93;;;21.40;;
53666;SDS011;39568;51.026;5.468;2023-02-22T04:25:33;109.43;;;17.45;;
53666;SDS011;39568;51.026;5.468;2023-02-22T04:28:01;145.35;;;23.42;;
53666;SDS011;39568;51.026;5.468;2023-02-22T04:30:28;149.40;;;20.85;;
53666;SDS011;39568;51.026;5.468;2023-02-22T04:32:55;117.97;;;19.80;;
53666;SDS011;39568;51.026;5.468;2023-02-22T04:35:22;103.75;;;20.50;;
53666;SDS011;39568;51.026;5.468;2023-02-22T04:37:48;125.15;;;20.52;;
53666;SDS011;39568;51.026;5.468;2023-02-22T04:40:17;113.25;;;19.17;;
53666;SDS011;39568;51.026;5.468;2023-02-22T04:42:44;125.18;;;18.15;;
53666;SDS011;39568;51.026;5.468;2023-02-22T04:45:11;94.28;;;19.60;;
53666;SDS011;39568;51.026;5.468;2023-02-22T04:47:38;119.57;;;20.40;;
53666;SDS011;39568;51.026;5.468;2023-02-22T04:50:05;147.77;;;20.88;;
53666;SDS011;39568;51.026;5.468;2023-02-22T04:52:33;59.17;;;19.05;;
53666;SDS011;39568;51.026;5.468;2023-02-22T04:54:59;50.38;;;18.00;;
53666;SDS011;39568;51.026;5.468;2023-02-22T04:57:28;59.25;;;19.25;;
53666;SDS011;39568;51.026;5.468;2023-02-22T04:59:54;34.08;;;15.00;;
53666;SDS011;39568;51.026;5.468;2023-02-22T05:02:21;30.92;;;16.80;;
53666;SDS011;39568;51.026;5.468;2023-02-22T05:04:48;33.55;;;17.98;;
53666;SDS011;39568;51.026;5.468;2023-02-22T05:07:15;31.23;;;17.13;;
53666;SDS011;39568;51.026;5.468;2023-02-22T05:09:42;36.53;;;18.13;;
53666;SDS011;39568;51.026;5.468;2023-02-22T05:12:09;38.97;;;17.10;;
53666;SDS011;39568;51.026;5.468;2023-02-22T05:14:37;37.72;;;19.15;;
53666;SDS011;39568;51.026;5.468;2023-02-22T05:17:04;38.42;;;18.67;;
53666;SDS011;39568;51.026;5.468;2023-02-22T05:19:30;37.10;;;18.25;;
53666;SDS011;39568;51.026;5.468;2023-02-22T05:21:57;35.33;;;19.10;;
53666;SDS011;39568;51.026;5.468;2023-02-22T05:24:24;34.47;;;17.80;;
53666;SDS011;39568;51.026;5.468;2023-02-22T05:26:50;40.13;;;19.02;;
53666;SDS011;39568;51.026;5.468;2023-02-22T05:29:18;37.53;;;18.65;;
53666;SDS011;39568;51.026;5.468;2023-02-22T05:31:46;37.63;;;19.27;;
53666;SDS011;39568;51.026;5.468;2023-02-22T05:34:13;34.10;;;18.27;;
53666;SDS011;39568;51.026;5.468;2023-02-22T05:36:40;36.00;;;18.80;;
53666;SDS011;39568;51.026;5.468;2023-02-22T05:39:07;46.38;;;20.40;;
53666;SDS011;39568;51.026;5.468;2023-02-22T05:41:34;43.83;;;21.38;;
53666;SDS011;39568;51.026;5.468;2023-02-22T05:44:01;44.58;;;19.38;;
53666;SDS011;39568;51.026;5.468;2023-02-22T05:46:28;39.88;;;19.15;;
53666;SDS011;39568;51.026;5.468;2023-02-22T05:48:56;41.85;;;19.55;;
53666;SDS011;39568;51.026;5.468;2023-02-22T05:51:23;42.97;;;19.92;;
53666;SDS011;39568;51.026;5.468;2023-02-22T05:53:49;41.72;;;20.13;;
53666;SDS011;39568;51.026;5.468;2023-02-22T05:56:19;36.30;;;18.00;;
53666;SDS011;39568;51.026;5.468;2023-02-22T05:58:47;39.22;;;20.35;;
53666;SDS011;39568;51.026;5.468;2023-02-22T06:01:13;37.50;;;18.95;;
53666;SDS011;39568;51.026;5.468;2023-02-22T06:03:40;36.03;;;18.85;;
53666;SDS011;39568;51.026;5.468;2023-02-22T06:06:08;40.33;;;19.30;;
53666;SDS011;39568;51.026;5.468;2023-02-22T06:08:35;36.30;;;17.80;;
53666;SDS011;39568;51.026;5.468;2023-02-22T06:11:01;36.72;;;17.55;;
53666;SDS011;39568;51.026;5.468;2023-02-22T06:13:28;37.58;;;17.45;;
53666;SDS011;39568;51.026;5.468;2023-02-22T06:15:55;34.95;;;17.10;;
53666;SDS011;39568;51.026;5.468;2023-02-22T06:18:22;31.02;;;17.95;;
53666;SDS011;39568;51.026;5.468;2023-02-22T06:20:50;28.65;;;17.40;;
53666;SDS011;39568;51.026;5.468;2023-02-22T06:23:18;36.78;;;18.35;;
53666;SDS011;39568;51.026;5.468;2023-02-22T06:25:45;37.25;;;18.45;;
53666;SDS011;39568;51.026;5.468;2023-02-22T06:28:12;38.55;;;17.42;;
53666;SDS011;39568;51.026;5.468;2023-02-22T06:30:39;34.67;;;16.20;;
53666;SDS011;39568;51.026;5.468;2023-02-22T06:33:07;31.02;;;17.52;;
53666;SDS011;39568;51.026;5.468;2023-02-22T06:35:33;38.08;;;17.75;;
53666;SDS011;39568;51.026;5.468;2023-02-22T06:38:00;31.27;;;16.80;;
53666;SDS011;39568;51.026;5.468;2023-02-22T06:40:28;37.47;;;19.27;;
53666;SDS011;39568;51.026;5.468;2023-02-22T06:42:55;41.65;;;21.35;;
53666;SDS011;39568;51.026;5.468;2023-02-22T06:45:23;34.58;;;19.40;;
53666;SDS011;39568;51.026;5.468;2023-02-22T06:47:50;39.17;;;18.92;;
53666;SDS011;39568;51.026;5.468;2023-02-22T06:50:18;38.40;;;18.13;;
53666;SDS011;39568;51.026;5.468;2023-02-22T06:52:49;39.00;;;18.95;;
53666;SDS011;39568;51.026;5.468;2023-02-22T06:55:18;41.63;;;19.20;;
53666;SDS011;39568;51.026;5.468;2023-02-22T06:57:47;38.53;;;18.60;;
53666;SDS011;39568;51.026;5.468;2023-02-22T07:00:14;39.83;;;18.17;;
53666;SDS011;39568;51.026;5.468;2023-02-22T07:02:43;39.83;;;17.45;;
53666;SDS011;39568;51.026;5.468;2023-02-22T07:05:10;34.75;;;17.40;;
53666;SDS011;39568;51.026;5.468;2023-02-22T07:07:37;32.67;;;17.23;;
53666;SDS011;39568;51.026;5.468;2023-02-22T07:10:04;35.03;;;17.63;;
53666;SDS011;39568;51.026;5.468;2023-02-22T07:12:32;31.65;;;17.33;;
53666;SDS011;39568;51.026;5.468;2023-02-22T07:15:00;35.72;;;18.85;;
53666;SDS011;39568;51.026;5.468;2023-02-22T07:17:27;32.55;;;16.60;;
53666;SDS011;39568;51.026;5.468;2023-02-22T07:19:54;34.85;;;17.30;;
53666;SDS011;39568;51.026;5.468;2023-02-22T07:22:20;31.67;;;18.05;;
53666;SDS011;39568;51.026;5.468;2023-02-22T07:24:47;31.48;;;17.25;;
53666;SDS011;39568;51.026;5.468;2023-02-22T07:27:14;35.40;;;17.40;;
53666;SDS011;39568;51.026;5.468;2023-02-22T07:29:41;26.52;;;16.13;;
53666;SDS011;39568;51.026;5.468;2023-02-22T07:32:10;32.17;;;16.50;;
53666;SDS011;39568;51.026;5.468;2023-02-22T07:34:36;31.50;;;16.10;;
53666;SDS011;39568;51.026;5.468;2023-02-22T07:37:03;31.60;;;17.52;;
53666;SDS011;39568;51.026;5.468;2023-02-22T07:39:30;32.03;;;16.55;;
53666;SDS011;39568;51.026;5.468;2023-02-22T07:41:57;34.22;;;15.63;;
53666;SDS011;39568;51.026;5.468;2023-02-22T07:44:24;26.50;;;15.80;;
53666;SDS011;39568;51.026;5.468;2023-02-22T07:46:51;35.58;;;18.95;;
53666;SDS011;39568;51.026;5.468;2023-02-22T07:49:19;28.90;;;15.25;;
53666;SDS011;39568;51.026;5.468;2023-02-22T07:51:45;25.15;;;16.27;;
53666;SDS011;39568;51.026;5.468;2023-02-22T07:54:12;29.10;;;15.32;;
53666;SDS011;39568;51.026;5.468;2023-02-22T07:56:43;23.98;;;14.10;;
53666;SDS011;39568;51.026;5.468;2023-02-22T07:59:10;26.33;;;14.30;;
53666;SDS011;39568;51.026;5.468;2023-02-22T08:01:37;22.42;;;13.55;;
53666;SDS011;39568;51.026;5.468;2023-02-22T08:04:04;22.10;;;14.02;;
53666;SDS011;39568;51.026;5.468;2023-02-22T08:06:32;21.35;;;12.95;;
53666;SDS011;39568;51.026;5.468;2023-02-22T08:08:59;23.63;;;13.95;;
53666;SDS011;39568;51.026;5.468;2023-02-22T08:11:25;19.98;;;13.20;;
53666;SDS011;39568;51.026;5.468;2023-02-22T08:13:52;20.92;;;12.15;;
53666;SDS011;39568;51.026;5.468;2023-02-22T08:16:19;25.17;;;13.70;;
53666;SDS011;39568;51.026;5.468;2023-02-22T08:18:45;22.70;;;13.05;;
53666;SDS011;39568;51.026;5.468;2023-02-22T08:21:12;23.33;;;11.50;;
53666;SDS011;39568;51.026;5.468;2023-02-22T08:23:40;18.50;;;12.30;;
53666;SDS011;39568;51.026;5.468;2023-02-22T08:26:09;18.23;;;11.52;;
53666;SDS011;39568;51.026;5.468;2023-02-22T08:28:39;19.60;;;12.02;;
53666;SDS011;39568;51.026;5.468;2023-02-22T08:31:07;24.25;;;12.85;;
53666;SDS011;39568;51.026;5.468;2023-02-22T08:33:33;17.48;;;10.57;;
53666;SDS011;39568;51.026;5.468;2023-02-22T08:36:00;21.10;;;10.68;;
53666;SDS011;39568;51.026;5.468;2023-02-22T08:38:28;13.75;;;9.60;;
53666;SDS011;39568;51.026;5.468;2023-02-22T08:40:59;14.98;;;10.50;;
53666;SDS011;39568;51.026;5.468;2023-02-22T08:43:26;19.50;;;10.32;;
53666;SDS011;39568;51.026;5.468;2023-02-22T08:45:52;15.25;;;9.20;;
53666;SDS011;39568;51.026;5.468;2023-02-22T08:48:19;17.00;;;10.85;;
53666;SDS011;39568;51.026;5.468;2023-02-22T08:50:46;13.20;;;9.93;;
53666;SDS011;39568;51.026;5.468;2023-02-22T08:53:14;12.80;;;10.23;;
53666;SDS011;39568;51.026;5.468;2023-02-22T08:55:42;14.95;;;9.52;;
53666;SDS011;39568;51.026;5.468;2023-02-22T08:58:10;14.48;;;9.60;;
53666;SDS011;39568;51.026;5.468;2023-02-22T09:00:38;10.82;;;8.95;;
53666;SDS011;39568;51.026;5.468;2023-02-22T09:03:05;14.00;;;9.90;;
53666;SDS011;39568;51.026;5.468;2023-02-22T09:05:34;13.73;;;8.95;;
53666;SDS011;39568;51.026;5.468;2023-02-22T09:08:01;18.05;;;9.60;;
53666;SDS011;39568;51.026;5.468;2023-02-22T09:10:28;16.58;;;8.43;;
53666;SDS011;39568;51.026;5.468;2023-02-22T09:12:57;13.40;;;8.93;;
53666;SDS011;39568;51.026;5.468;2023-02-22T09:15:27;14.65;;;9.27;;
53666;SDS011;39568;51.026;5.468;2023-02-22T09:17:55;10.77;;;8.98;;
53666;SDS011;39568;51.026;5.468;2023-02-22T09:20:22;10.98;;;8.00;;
53666;SDS011;39568;51.026;5.468;2023-02-22T09:22:50;22.63;;;11.30;;
53666;SDS011;39568;51.026;5.468;2023-02-22T09:25:17;14.55;;;9.48;;
53666;SDS011;39568;51.026;5.468;2023-02-22T09:27:46;16.17;;;10.10;;
53666;SDS011;39568;51.026;5.468;2023-02-22T09:30:17;20.45;;;9.30;;
53666;SDS011;39568;51.026;5.468;2023-02-22T09:32:51;20.33;;;8.13;;
53666;SDS011;39568;51.026;5.468;2023-02-22T09:35:18;25.52;;;9.70;;
53666;SDS011;39568;51.026;5.468;2023-02-22T09:37:51;13.60;;;8.55;;
53666;SDS011;39568;51.026;5.468;2023-02-22T09:40:18;18.23;;;9.82;;
53666;SDS011;39568;51.026;5.468;2023-02-22T09:45:28;15.60;;;8.77;;
53666;SDS011;39568;51.026;5.468;2023-02-22T09:48:02;19.02;;;9.95;;
53666;SDS011;39568;51.026;5.468;2023-02-22T09:50:33;20.63;;;11.13;;
53666;SDS011;39568;51.026;5.468;2023-02-22T09:53:22;15.80;;;8.18;;
53666;SDS011;39568;51.026;5.468;2023-02-22T09:55:55;18.23;;;9.40;;
53666;SDS011;39568;51.026;5.468;2023-02-22T10:00:59;20.30;;;9.80;;
53666;SDS011;39568;51.026;5.468;2023-02-22T10:03:43;20.73;;;12.57;;
53666;SDS011;39568;51.026;5.468;2023-02-22T10:06:16;35.25;;;21.75;;
53666;SDS011;39568;51.026;5.468;2023-02-22T10:08:47;42.47;;;25.02;;
53666;SDS011;39568;51.026;5.468;2023-02-22T10:11:17;20.65;;;10.38;;
53666;SDS011;39568;51.026;5.468;2023-02-22T10:14:00;21.80;;;12.70;;
53666;SDS011;39568;51.026;5.468;2023-02-22T10:16:45;14.55;;;8.50;;
53666;SDS011;39568;51.026;5.468;2023-02-22T10:19:25;14.48;;;10.13;;
53666;SDS011;39568;51.026;5.468;2023-02-22T10:22:02;16.60;;;9.10;;
53666;SDS011;39568;51.026;5.468;2023-02-22T10:24:50;14.18;;;8.82;;
53666;SDS011;39568;51.026;5.468;2023-02-22T10:27:24;13.27;;;8.60;;
53666;SDS011;39568;51.026;5.468;2023-02-22T10:29:56;12.63;;;8.20;;
53666;SDS011;39568;51.026;5.468;2023-02-22T10:32:28;15.52;;;8.02;;
53666;SDS011;39568;51.026;5.468;2023-02-22T10:35:02;16.27;;;8.95;;
53666;SDS011;39568;51.026;5.468;2023-02-22T10:37:35;24.67;;;10.73;;
53666;SDS011;39568;51.026;5.468;2023-02-22T10:40:10;14.13;;;7.47;;
53666;SDS011;39568;51.026;5.468;2023-02-22T10:42:41;30.42;;;9.70;;
53666;SDS011;39568;51.026;5.468;2023-02-22T10:45:13;11.23;;;8.60;;
53666;SDS011;39568;51.026;5.468;2023-02-22T10:47:46;14.82;;;8.38;;
53666;SDS011;39568;51.026;5.468;2023-02-22T10:50:15;12.35;;;7.78;;
53666;SDS011;39568;51.026;5.468;2023-02-22T10:52:44;11.38;;;8.35;;
53666;SDS011;39568;51.026;5.468;2023-02-22T10:55:11;19.00;;;8.20;;
53666;SDS011;39568;51.026;5.468;2023-02-22T10:57:39;18.48;;;9.73;;
53666;SDS011;39568;51.026;5.468;2023-02-22T11:00:15;11.93;;;8.88;;
53666;SDS011;39568;51.026;5.468;2023-02-22T11:02:51;13.30;;;7.80;;
53666;SDS011;39568;51.026;5.468;2023-02-22T11:05:27;17.10;;;9.20;;
53666;SDS011;39568;51.026;5.468;2023-02-22T11:08:21;14.68;;;8.75;;
53666;SDS011;39568;51.026;5.468;2023-02-22T11:10:51;11.60;;;8.25;;
53666;SDS011;39568;51.026;5.468;2023-02-22T11:13:23;12.73;;;7.45;;
53666;SDS011;39568;51.026;5.468;2023-02-22T11:15:51;14.82;;;9.20;;
53666;SDS011;39568;51.026;5.468;2023-02-22T11:18:23;10.43;;;8.00;;
53666;SDS011;39568;51.026;5.468;2023-02-22T11:21:00;8.45;;;6.07;;
53666;SDS011;39568;51.026;5.468;2023-02-22T11:23:29;12.07;;;8.60;;
53666;SDS011;39568;51.026;5.468;2023-02-22T11:26:01;10.20;;;6.30;;
53666;SDS011;39568;51.026;5.468;2023-02-22T11:28:31;12.02;;;8.90;;
53666;SDS011;39568;51.026;5.468;2023-02-22T11:31:07;14.65;;;9.18;;
53666;SDS011;39568;51.026;5.468;2023-02-22T11:33:36;10.65;;;7.00;;
53666;SDS011;39568;51.026;5.468;2023-02-22T11:36:05;18.38;;;9.07;;
53666;SDS011;39568;51.026;5.468;2023-02-22T11:38:35;12.48;;;9.15;;
53666;SDS011;39568;51.026;5.468;2023-02-22T11:41:04;14.40;;;8.23;;
53666;SDS011;39568;51.026;5.468;2023-02-22T11:43:41;12.88;;;9.00;;
53666;SDS011;39568;51.026;5.468;2023-02-22T11:46:10;13.25;;;8.70;;
53666;SDS011;39568;51.026;5.468;2023-02-22T11:48:40;12.60;;;9.43;;
53666;SDS011;39568;51.026;5.468;2023-02-22T11:51:16;17.02;;;8.88;;
53666;SDS011;39568;51.026;5.468;2023-02-22T11:53:54;16.27;;;10.45;;
53666;SDS011;39568;51.026;5.468;2023-02-22T11:56:47;15.70;;;9.18;;
53666;SDS011;39568;51.026;5.468;2023-02-22T11:59:18;12.70;;;8.27;;
53666;SDS011;39568;51.026;5.468;2023-02-22T12:01:55;15.50;;;7.43;;
53666;SDS011;39568;51.026;5.468;2023-02-22T12:04:36;14.15;;;10.23;;
53666;SDS011;39568;51.026;5.468;2023-02-22T12:07:19;20.33;;;10.90;;
53666;SDS011;39568;51.026;5.468;2023-02-22T12:09:57;14.70;;;9.13;;
53666;SDS011;39568;51.026;5.468;2023-02-22T12:12:31;17.60;;;9.52;;
53666;SDS011;39568;51.026;5.468;2023-02-22T12:15:10;14.18;;;10.30;;
53666;SDS011;39568;51.026;5.468;2023-02-22T12:17:45;19.17;;;10.68;;
53666;SDS011;39568;51.026;5.468;2023-02-22T12:20:17;12.23;;;7.25;;
53666;SDS011;39568;51.026;5.468;2023-02-22T12:25:22;16.00;;;9.23;;
53666;SDS011;39568;51.026;5.468;2023-02-22T12:27:54;12.73;;;9.48;;
53666;SDS011;39568;51.026;5.468;2023-02-22T12:30:25;16.83;;;10.23;;
53666;SDS011;39568;51.026;5.468;2023-02-22T12:32:55;13.32;;;10.73;;
53666;SDS011;39568;51.026;5.468;2023-02-22T12:35:25;20.00;;;12.40;;
53666;SDS011;39568;51.026;5.468;2023-02-22T12:38:00;18.02;;;13.30;;
53666;SDS011;39568;51.026;5.468;2023-02-22T12:40:32;20.98;;;13.38;;
53666;SDS011;39568;51.026;5.468;2023-02-22T12:43:03;25.10;;;12.70;;
53666;SDS011;39568;51.026;5.468;2023-02-22T12:45:37;22.75;;;13.73;;
53666;SDS011;39568;51.026;5.468;2023-02-22T12:48:15;27.65;;;15.98;;
53666;SDS011;39568;51.026;5.468;2023-02-22T12:50:51;21.58;;;14.40;;
53666;SDS011;39568;51.026;5.468;2023-02-22T12:53:22;26.38;;;13.63;;
53666;SDS011;39568;51.026;5.468;2023-02-22T12:55:54;27.52;;;16.65;;
53666;SDS011;39568;51.026;5.468;2023-02-22T12:58:31;30.67;;;15.13;;
53666;SDS011;39568;51.026;5.468;2023-02-22T13:01:05;25.85;;;14.75;;
53666;SDS011;39568;51.026;5.468;2023-02-22T13:03:38;21.13;;;14.55;;
53666;SDS011;39568;51.026;5.468;2023-02-22T13:06:10;27.45;;;13.70;;
53666;SDS011;39568;51.026;5.468;2023-02-22T13:08:47;22.73;;;15.13;;
53666;SDS011;39568;51.026;5.468;2023-02-22T13:11:26;27.35;;;14.85;;
53666;SDS011;39568;51.026;5.468;2023-02-22T13:14:05;24.80;;;16.17;;
53666;SDS011;39568;51.026;5.468;2023-02-22T13:16:43;26.38;;;16.05;;
53666;SDS011;39568;51.026;5.468;2023-02-22T13:19:22;26.45;;;15.70;;
53666;SDS011;39568;51.026;5.468;2023-02-22T13:21:56;28.10;;;15.45;;
53666;SDS011;39568;51.026;5.468;2023-02-22T13:24:29;24.05;;;13.02;;
53666;SDS011;39568;51.026;5.468;2023-02-22T13:27:05;29.02;;;13.90;;
53666;SDS011;39568;51.026;5.468;2023-02-22T13:29:37;23.25;;;15.30;;
53666;SDS011;39568;51.026;5.468;2023-02-22T13:32:12;27.67;;;14.85;;
53666;SDS011;39568;51.026;5.468;2023-02-22T13:34:52;26.85;;;13.23;;
53666;SDS011;39568;51.026;5.468;2023-02-22T13:37:41;25.33;;;16.77;;
53666;SDS011;39568;51.026;5.468;2023-02-22T13:43:49;27.30;;;15.70;;
53666;SDS011;39568;51.026;5.468;2023-02-22T13:46:34;29.33;;;11.15;;
53666;SDS011;39568;51.026;5.468;2023-02-22T13:49:23;35.00;;;17.48;;
53666;SDS011;39568;51.026;5.468;2023-02-22T13:52:01;27.83;;;16.45;;
53666;SDS011;39568;51.026;5.468;2023-02-22T13:54:33;31.15;;;16.77;;
53666;SDS011;39568;51.026;5.468;2023-02-22T13:57:15;29.38;;;17.25;;
53666;SDS011;39568;51.026;5.468;2023-02-22T13:59:45;26.15;;;14.88;;
53666;SDS011;39568;51.026;5.468;2023-02-22T14:14:16;55.78;;;22.55;;
53666;SDS011;39568;51.026;5.468;2023-02-22T14:16:43;25.27;;;14.55;;
53666;SDS011;39568;51.026;5.468;2023-02-22T14:19:30;20.70;;;14.32;;
53666;SDS011;39568;51.026;5.468;2023-02-22T14:21:59;22.98;;;13.85;;
53666;SDS011;39568;51.026;5.468;2023-02-22T14:24:27;69.97;;;23.73;;
53666;SDS011;39568;51.026;5.468;2023-02-22T14:26:57;98.05;;;33.13;;
53666;SDS011;39568;51.026;5.468;2023-02-22T14:29:25;31.02;;;16.67;;
53666;SDS011;39568;51.026;5.468;2023-02-22T14:31:56;23.85;;;14.57;;
53666;SDS011;39568;51.026;5.468;2023-02-22T14:34:46;28.17;;;16.05;;
53666;SDS011;39568;51.026;5.468;2023-02-22T14:37:19;23.90;;;15.03;;
53666;SDS011;39568;51.026;5.468;2023-02-22T14:39:50;25.40;;;16.42;;
53666;SDS011;39568;51.026;5.468;2023-02-22T14:42:20;25.48;;;15.82;;
53666;SDS011;39568;51.026;5.468;2023-02-22T14:44:51;23.67;;;14.38;;
53666;SDS011;39568;51.026;5.468;2023-02-22T14:47:23;25.73;;;16.27;;
53666;SDS011;39568;51.026;5.468;2023-02-22T14:49:54;33.65;;;16.50;;
53666;SDS011;39568;51.026;5.468;2023-02-22T14:52:28;26.10;;;16.05;;
53666;SDS011;39568;51.026;5.468;2023-02-22T14:55:01;29.58;;;15.85;;
53666;SDS011;39568;51.026;5.468;2023-02-22T14:57:42;30.65;;;16.33;;
53666;SDS011;39568;51.026;5.468;2023-02-22T15:00:19;27.73;;;17.33;;
53666;SDS011;39568;51.026;5.468;2023-02-22T15:02:55;20.90;;;14.02;;
53666;SDS011;39568;51.026;5.468;2023-02-22T15:05:23;31.98;;;16.52;;
53666;SDS011;39568;51.026;5.468;2023-02-22T15:07:56;25.00;;;16.65;;
53666;SDS011;39568;51.026;5.468;2023-02-22T15:10:26;28.08;;;17.45;;
53666;SDS011;39568;51.026;5.468;2023-02-22T15:12:56;31.02;;;15.40;;
53666;SDS011;39568;51.026;5.468;2023-02-22T15:15:35;24.60;;;15.27;;